LiveATC.Net - Listen to live air traffic control over the Internet!

Find LiveATC Audio Streams


Airport/ARTCC Code

Frequency Search
(e.g., 124.400, 128.75)
Site-wide search
 


Browse LiveATC Feeds
Top 50 LiveATC Feeds
LiveATC Feed Map
Bad Weather Areas

LiveATC FAQ
Offer LiveATC feed
Contact LiveATC.net
Press Inquiries

LiveATC on iPhone
LiveATC on Android

Windows Phone
Windows 8/10

LiveATC Mobile
(Mobile browser)

ATC Audio Archives
Interesting Recordings

LiveATC Forums

Home Page
About LiveATC.net
Make a Donation
Terms of Use
Privacy Policy

Canadian Air Freqs

AIRMETs/SIGMETs

FAA Airport Status
Nat'l Airspace Status
Arrival Demand Charts


Server Software By:
Icecast.org
Liquidsoap


Current Potentially Bad Weather Airports
(updated every 30 minutes - sorted alphabetically by ICAO code)



This page lists LiveATC.net airport areas that may be interesting to listen to because of challenging flying (weather) conditions. Challenging weather conditions include low ceilings, limited visibility, high or gusty winds, or thunderstorms.

Updated: Sun Apr 21 02:40:02 UTC 2019
Click on airport name to go to that airport area's feeds.

CYHZ Del/Gnd/Twr/App Halifax International Airport (Halifax, CA-NS)
WX MAP UNAVAILABLENearest METAR:
CYHZ 210228Z 19010G18KT 4SM BR OVC002 12/12 A3023 RMK ST8 SLP242
CYMX Ground/Radio Montreal-Mirabel International Airport (Montreal, CA-QC)
cymxNearest METAR:
CYMX 210200Z 05010G19KT 020V080 15SM OVC005 05/04 A2978 RMK ST8 SLP090
CYOW Gnd/Twr/App Ottawa MacDonald Cartier International Airport (Ottawa, CA-ON)
cyowNearest METAR:
CYOW 210200Z 06012KT 4SM BR OVC003 06/05 A2970 RMK SC8 CIG VRB 2-4 SLP062
CYQG Gnd/Twr/App/Misc Windsor Airport (Windsor, CA-ON)
cyqgNearest METAR:
CYQG 210228Z AUTO 31004KT 5SM BR OVC009 06/05 A2980 RMK SLP097
CYQI/CZQM CTAF/FIC/Center Yarmouth Airport (Yarmouth, CA-NS)
WX MAP UNAVAILABLENearest METAR:
CYQI 210224Z 19018G31KT 1SM BR OVC002 11/10 A3016 RMK SF8 SLP217
CYQM App/Dep Greater Moncton International Airport (Moncton, CA-NB)
cyqmNearest METAR:
CYQM 210200Z 08006KT 8SM -RA SCT003 OVC008 03/03 A3016 RMK SF3SF5 SLP219
CYYT Gnd/Twr/Gander Center St. John's International Airport (St. John's, CA-NL)
WX MAP UNAVAILABLENearest METAR:
CYYT 210200Z 09004KT 1/4SM R29/1400FT/N R16/1200FT/N -DZ FG VV001 02/02 A3029 RMK FG8 SLP266
EINN Twr/App #1 Shannon Airport (Shannon, Ireland)
WX MAP UNAVAILABLENearest METAR:
EINN 210200Z 24005KT 1300 R24/P2000 R06/1200D -DZ BR OVC002 10/09 Q1024 NOSIG
ENEV Twr/App/ACC Harstad/Narvik Airport (Evenes, Norway)
WX MAP UNAVAILABLENearest METAR:
ENEV 210220Z AUTO 23016G27KT 9999 BR FEW002/// BKN014/// OVC026/// 07/05 Q1011 RERA RMK WIND 1400FT 24039G52KT
EYVI Twr/App/Misc Vilnius International Airport (Vilnius, Lithuania)
WX MAP UNAVAILABLENearest METAR:
EYVI 210220Z 32004KT 9999 -SHRA OVC046CB 07/03 Q1021 NOSIG
KARB Gnd/Twr Ann Arbor Municipal Airport (Ann Arbor, US-MI)
karbNearest METAR:
KARB 210153Z AUTO 34007KT 10SM OVC009 06/04 A2979 RMK AO2 SLP093 T00610044
KAUG Del/CTAF Augusta State Airport (Augusta, US-ME)
kaugNearest METAR:
KAUG 210153Z AUTO 14006KT 1/4SM FG VV002 13/13 A3001 RMK AO2 RAB23E37 SLP161 P0000 T01280128
KBGR Del/Gnd/Twr Bangor International Airport (Bangor, US-ME)
kbgrNearest METAR:
KBGR 210153Z 18013KT 1/2SM R15/5500VP6000FT FG OVC002 12/12 A3002 RMK AO2 SLP165 T01220122
KBIL Approach (West) Billings Logan International Airport (Billings, US-MT)
kbilNearest METAR:
KBIL 210153Z 04016KT 10SM FEW014 SCT100 BKN140 BKN200 13/07 A2974 RMK AO2 RAB17E35 SLP059 OCNL LTG DSNT W VIRGA VCSH ALQDS CB DSNT SW-NW P0000 T01330072
MA/NH/RI/CT Area CTAF Fitchburg Municipal Airport (Fitchburg, US-MA)
ksfzNearest METAR:
KSFZ 210228Z AUTO 16007G14KT 130V190 1/2SM FG OVC003 13/13 A2996 RMK AO2
MA/NH/RI/CT Area CTAF Fitchburg Municipal Airport (Fitchburg, US-MA)
kpymNearest METAR:
KPYM 210152Z AUTO VRB05KT 6SM -RA BR OVC003 16/15 A2999 RMK AO2 SLP155 P0008 T01560150
KBUF App/Dep Buffalo Niagara International Airport (Buffalo, US-NY)
kbufNearest METAR:
KBUF 210154Z 12007KT 10SM OVC006 07/07 A2974 RMK AO2 RAE12 SLP077 P0000 T00720067 $
KBVY Tower #1 Beverly Municipal Airport (Beverly, US-MA)
kbvyNearest METAR:
KBVY 210213Z AUTO 12005KT 4SM BR OVC002 14/13 A2995 RMK AO2 T01440133
KCGF Tower Cuyahoga County Airport (Cleveland, US-OH)
kcgfNearest METAR:
KCGF 210145Z 23008KT 8SM OVC005 06/04 A2975
KCLE App/Dep Cleveland-Hopkins International Airport (Cleveland, US-OH)
kcleNearest METAR:
KCLE 210151Z 26007KT 5SM BR OVC003 07/06 A2979 RMK AO2 SLP092 T00670056
KHUL/KPQI/ZBW01/15 Houlton International Airport (Houlton, US-ME)
kpqiNearest METAR:
KPQI 210156Z AUTO 12005KT 10SM OVC008 04/03 A3009 RMK AO2 RAE24 SLP235 P0001 T00440033
KHUL/KPQI/ZBW01/15 Houlton International Airport (Houlton, US-ME)
khulNearest METAR:
KHUL 210207Z AUTO VRB05KT 2SM BR OVC004 04/03 A3008 RMK AO2 T00390033
KHYA/KFMH Twr/Cape App Cape Cod Coast Guard Air Station (Falmouth, US-MA)
kfmhNearest METAR:
KFMH 210215Z 14012KT 4SM -DZ OVC003 14/14 A3000 RMK AO2
KMTC App/Dep Selfridge Air National Guard Base (Mount Clemens, US-MI)
kmtcNearest METAR:
KMTC 210156Z 32005KT 10SM OVC008 06/06 A2977 RMK AO2A SLP090 T00630063 $
KMTC Area CTAF St Clair County International Airport (Port Huron, US-MI)
kvllNearest METAR:
KVLL 210215Z AUTO 31003KT 10SM OVC008 07/04 A2981 RMK AO2 T00650044
KMTC Area CTAF St Clair County International Airport (Port Huron, US-MI)
kphnNearest METAR:
KPHN 210220Z AUTO 34004KT 10SM OVC006 06/04 A2979 RMK AO2
NORCAL Departure (KSFO/KOAK) Metropolitan Oakland International Airport (Oakland, US-CA)
ksfoNearest METAR:
KSFO 210156Z 26029G39KT 9SM SCT017 12/07 A2997 RMK AO2 PK WND 28043/0135 SLP148 T01220067
KOGD Ogden Ground/Tower Ogden-Hinckley Airport (Ogden, US-UT)
kogdNearest METAR:
KOGD 210153Z 05011KT 10SM -RA BKN055 OVC075 14/05 A2975 RMK AO2 PK WND 25031/0112 WSHFT 0049 LTG DSNT NW-NE RAB13 TSB0058E13B15E32 PRESFR SLP042 P0001 T01390050
KOWD Ground/Tower Norwood Municipal Airport (Norwood, US-MA)
kowdNearest METAR:
KOWD 210153Z AUTO 19007KT 10SM OVC008 18/16 A2996 RMK AO2 RAE24 CIG 007V012 SLP144 P0000 T01830161 TSNO
KPCW CTAF Erie-Ottawa International Airport (Port Clinton, US-OH)
kpcwNearest METAR:
KPCW 210215Z AUTO 35005KT 6SM BR OVC008 07/06 A2980 RMK AO2
KPSM Gnd/Twr/App/GCA Portsmouth International Airport at Pease (Portsmouth, US-NH)
kpsmNearest METAR:
KPSM 210211Z 14008KT 1SM -RA BR OVC002 14/13 A2995 RMK AO2A SLP144
KPTK App/Dep Oakland County International Airport (Pontiac, US-MI)
kptkNearest METAR:
KPTK 210153Z 36005KT 10SM OVC004 06/06 A2978 RMK AO2 DZB07E31 SLP090 P0000 T00560056 $
KPVD Clearance Delivery Theodore Francis Green State Airport (Providence, US-RI)
kpvdNearest METAR:
KPVD 210220Z 18006KT 3SM BR OVC003 13/13 A2998 RMK AO2 P0000 T01330133
KPWM Gnd/Twr/App Portland International Jetport (Portland, US-ME)
kpwmNearest METAR:
KPWM 210151Z 17008KT 1SM -RA BR OVC002 13/13 A2998 RMK AO2 SLP153 P0001 T01330128
KROC Approach Greater Rochester International Airport (Rochester, US-NY)
krocNearest METAR:
KROC 210154Z 34003KT 2 1/2SM -DZ BR OVC004 07/06 A2974 RMK AO2 SFC VIS 4 DZB07 CIG 002V008 SLP077 P0001 T00670056
KTAN CTAF Taunton Municipal Airport (Taunton, US-MA)
ktanNearest METAR:
KTAN 210200Z AUTO 15009G15KT 8SM -RA OVC004 16/15 A2996 RMK AO2 P0000 T01610150
KUUU CTAF/Del Newport State Airport (Newport, US-RI)
kuuuNearest METAR:
KUUU 210153Z AUTO 16011KT 1/4SM FG VV002 12/12 A2997 RMK AO2 RAE0059B21E43 SLP147 P0001 T01170117
PADQ Gnd/Twr/ZAN Kodiak Airport (Kodiak, US-AK)
padqNearest METAR:
PADQ 210218Z 29013KT 2SM -SN BR BKN021 OVC030 01/00 A2958 RMK AO2 P0001 T00110000 $
Kachemak Bay CTAF Bootleggers Cove Airport (Homer, US-AK)
WX MAP UNAVAILABLENearest METAR:
PASO 210226Z AUTO 34004KT 1/2SM SN FG FEW006 OVC010 01/M01 A2964 RMK AO2 P0001 T00061006 TSNO
PAHO AWOS/AFIS Homer Airport (Homer, US-AK)
pahoNearest METAR:
PAHO 210153Z 00000KT 3/4SM -SN BR BKN004 OVC011 01/00 A2966 RMK AO2 SLP044 P0004 T00110000
PALH Tower Lake Hood Seaplane Base (Anchorage, US-AK)
palhNearest METAR:
PALH 210214Z 01008KT 7SM -SN SCT010 BKN015 OVC027 02/00 A2971 RMK AO2 P0001 T00220000
PHOG Del/Gnd/Twr/App Kahului Airport (Maui) (Kahului, US-HI)
phogNearest METAR:
PHOG 210154Z 06021G30KT 10SM SCT045 28/19 A3004 RMK AO2 PK WND 07031/0111 SLP177 T02830194
RKSO Gnd/Twr/App Osan Air Base Airport (K 55) (Pyeongtaek, Korea, Republic of)
WX MAP UNAVAILABLENearest METAR:
RKSO 210158Z 27003KT 2 1/2SM BR OVC009 15/13 A2995 RMK AO2A SLP145
URMT Twr/App/Control Stavropol Shpakovskoye Airport (Stavropol, Russia)
WX MAP UNAVAILABLENearest METAR:
URMT 210200Z 10006MPS CAVOK M01/M03 Q1019 R07/010070 TEMPO 0300 FZFG OVC002 RMK QFE724
ZGKL App/Control Guilin Liangjiang International Airport (Guilin, China)
WX MAP UNAVAILABLENearest METAR:
ZGKL 210200Z VRB02MPS 4000 TS BR SCT020 BKN040 FEW040CB 23/22 Q1008 TEMPO FM0230 2500 TSRA